Time;durP1;ratioP1;P1;durP2;ratioP2;P2;SDS_P1;SDS_P2;PMS_P1;PMS_P2;Temp;Humidity;BMP_temperature;BMP_pressure;BME280_temperature;BME280_humidity;BME280_pressure;Samples;Min_cycle;Max_cycle;Signal;HPM_P1;HPM_P2
2022/05/24 00:00:44;;;;;;;5.90;3.80;;;;;;;9.77;65.31;98814.50;1695407;84;21120;-72
2022/05/24 00:03:11;;;;;;;4.75;3.47;;;;;;;9.74;65.65;98810.87;1695224;84;21539;-72
2022/05/24 00:05:39;;;;;;;5.03;4.45;;;;;;;9.70;66.05;98814.38;1695603;84;20961;-72
2022/05/24 00:08:06;;;;;;;9.13;3.77;;;;;;;9.71;66.36;98812.55;1695269;84;21541;-73
2022/05/24 00:10:39;;;;;;;4.92;4.35;;;;;;;9.69;66.59;98814.08;1705402;83;20902;-72
2022/05/24 00:13:05;;;;;;;4.37;3.52;;;;;;;9.70;66.70;98810.89;1690679;84;21319;-72
2022/05/24 00:15:32;;;;;;;4.42;4.12;;;;;;;9.72;66.88;98813.72;1698441;83;21023;-73
2022/05/24 00:18:11;;;;;;;6.90;3.90;;;;;;;9.72;67.03;98810.23;1690689;84;21003;-72
2022/05/24 00:20:48;;;;;;;8.85;4.45;;;;;;;9.71;67.20;98805.91;1690702;84;20976;-73
2022/05/24 00:23:14;;;;;;;4.75;4.28;;;;;;;9.73;67.48;98814.02;1690234;84;20991;-73
2022/05/24 00:25:47;;;;;;;5.50;4.17;;;;;;;9.75;67.69;98810.67;1690410;84;21787;-71
2022/05/24 00:28:14;;;;;;;4.53;3.87;;;;;;;9.79;67.85;98808.49;1688088;84;20950;-72
2022/05/24 00:30:41;;;;;;;5.05;4.28;;;;;;;9.82;67.98;98817.43;1688060;84;20987;-72
2022/05/24 00:33:08;;;;;;;6.47;4.90;;;;;;;9.85;68.17;98817.08;1688297;84;21002;-73
2022/05/24 00:35:35;;;;;;;5.37;4.50;;;;;;;9.91;68.24;98817.66;1696313;84;20990;-74
2022/05/24 00:38:01;;;;;;;5.33;4.62;;;;;;;9.96;68.24;98813.15;1695413;84;21428;-72
2022/05/24 00:40:48;;;;;;;7.05;4.80;;;;;;;10.01;68.14;98818.20;1695533;84;20859;-73
2022/05/24 00:43:45;;;;;;;6.15;4.90;;;;;;;10.06;68.05;98817.69;1696079;83;21547;-73
2022/05/24 00:46:24;;;;;;;5.65;4.97;;;;;;;10.10;67.90;98823.77;1691056;84;22602;-71
2022/05/24 00:49:07;;;;;;;5.42;4.87;;;;;;;10.12;67.83;98816.47;1644473;84;21038;-74
2022/05/24 00:51:46;;;;;;;5.53;4.72;;;;;;;10.16;67.69;98812.95;1678625;84;22365;-71
2022/05/24 00:54:13;;;;;;;10.58;5.50;;;;;;;10.20;67.59;98820.86;1685169;84;21608;-71
2022/05/24 00:57:07;;;;;;;6.65;4.58;;;;;;;10.19;67.44;98827.20;1689484;84;20919;-72
2022/05/24 00:59:42;;;;;;;7.28;4.50;;;;;;;10.17;67.30;98823.88;1688161;84;20933;-71
2022/05/24 01:02:09;;;;;;;5.28;4.15;;;;;;;10.13;67.26;98825.27;1697548;83;21073;-71
2022/05/24 01:04:38;;;;;;;5.92;4.50;;;;;;;10.08;67.21;98823.64;1690753;84;21288;-71
2022/05/24 01:07:05;;;;;;;6.65;5.30;;;;;;;10.00;67.14;98821.89;1698387;83;20938;-72
2022/05/24 01:09:54;;;;;;;6.97;4.85;;;;;;;9.95;67.28;98826.93;1690653;84;21539;-72
2022/05/24 01:12:39;;;;;;;10.65;4.87;;;;;;;9.90;67.37;98822.17;1698142;84;21069;-73
2022/05/24 01:15:08;;;;;;;7.20;4.37;;;;;;;9.83;67.48;98818.56;1682641;84;21129;-70
2022/05/24 01:17:35;;;;;;;4.80;4.10;;;;;;;9.77;67.58;98822.47;1690929;84;21156;-71
2022/05/24 01:20:02;;;;;;;4.90;4.03;;;;;;;9.72;67.55;98820.86;1690535;84;20997;-71
2022/05/24 01:23:16;;;;;;;6.62;4.40;;;;;;;9.64;67.55;98826.23;1698031;84;21503;-72
2022/05/24 01:26:16;;;;;;;7.90;4.87;;;;;;;9.58;67.63;98809.19;1698539;84;21011;-72
2022/05/24 01:28:53;;;;;;;9.53;5.15;;;;;;;9.53;67.76;98812.89;1690937;84;21070;-71
2022/05/24 01:31:21;;;;;;;5.90;5.30;;;;;;;9.51;67.98;98815.41;1690794;84;21259;-71
2022/05/24 01:36:39;;;;;;;6.10;5.08;;;;;;;9.50;68.21;98818.55;1683239;84;21098;-71
2022/05/24 01:39:09;;;;;;;6.45;5.20;;;;;;;9.49;68.18;98813.44;1690632;84;21604;-72
2022/05/24 01:41:42;;;;;;;5.80;5.25;;;;;;;9.48;68.34;98815.26;1698324;84;20946;-72
2022/05/24 01:44:09;;;;;;;7.05;5.08;;;;;;;9.50;68.46;98817.23;1661859;86;21150;-72
2022/05/24 01:46:42;;;;;;;5.67;5.03;;;;;;;9.51;68.38;98812.75;1698939;83;20982;-72
2022/05/24 01:49:20;;;;;;;5.70;5.15;;;;;;;9.51;68.20;98812.75;1698657;84;21002;-72
2022/05/24 01:52:00;;;;;;;6.22;5.72;;;;;;;9.49;68.16;98810.78;1677531;84;20998;-72
2022/05/24 01:54:28;;;;;;;9.43;5.78;;;;;;;9.49;68.16;98816.89;1688359;84;20998;-74
2022/05/24 01:57:04;;;;;;;7.45;5.50;;;;;;;9.49;68.18;98816.09;1687821;84;21139;-72
2022/05/24 01:59:31;;;;;;;6.72;5.55;;;;;;;9.50;68.23;98812.41;1682744;84;20871;-73
2022/05/24 02:01:59;;;;;;;6.08;5.30;;;;;;;9.52;68.21;98814.38;1697437;83;20954;-72
2022/05/24 02:04:27;;;;;;;5.33;4.83;;;;;;;9.53;68.14;98817.38;1697069;84;21529;-72
2022/05/24 02:07:09;;;;;;;5.15;4.65;;;;;;;9.53;68.16;98822.19;1690790;84;20976;-73
2022/05/24 02:09:39;;;;;;;6.83;5.00;;;;;;;9.54;68.31;98821.16;1690709;84;21252;-71
2022/05/24 02:12:11;;;;;;;5.92;5.33;;;;;;;9.54;68.42;98817.70;1697794;84;21089;-71
2022/05/24 02:14:43;;;;;;;5.53;4.80;;;;;;;9.53;68.41;98819.53;1695838;84;20906;-71
2022/05/24 02:17:23;;;;;;;7.25;5.05;;;;;;;9.49;68.33;98820.08;1695452;84;21497;-71
2022/05/24 02:19:52;;;;;;;6.65;5.03;;;;;;;9.46;68.35;98829.22;1695112;84;20859;-71
2022/05/24 02:22:23;;;;;;;5.10;4.58;;;;;;;9.46;68.43;98828.39;1695199;84;21121;-71
2022/05/24 02:24:57;;;;;;;6.20;5.60;;;;;;;9.45;68.49;98826.23;1696185;84;21622;-71
2022/05/24 02:27:25;;;;;;;5.60;5.10;;;;;;;9.43;68.53;98830.91;1695226;84;20958;-71
2022/05/24 02:29:52;;;;;;;6.28;4.50;;;;;;;9.43;68.57;98824.27;1692353;84;20990;-71
2022/05/24 02:32:18;;;;;;;5.78;5.20;;;;;;;9.44;68.58;98821.91;1687553;84;20898;-72
2022/05/24 02:34:45;;;;;;;7.17;5.92;;;;;;;9.44;68.73;98823.77;1689312;84;22145;-74
2022/05/24 02:37:12;;;;;;;9.53;5.65;;;;;;;9.46;68.78;98815.12;1682727;85;20928;-75
2022/05/24 02:42:23;;;;;;;6.37;5.78;;;;;;;9.50;68.85;98815.06;1692822;83;20958;-74
2022/05/24 02:44:50;;;;;;;5.92;5.28;;;;;;;9.54;68.86;98816.38;1689959;84;21532;-74
2022/05/24 02:47:17;;;;;;;6.05;5.15;;;;;;;9.60;68.79;98811.16;1682915;85;21843;-72
2022/05/24 02:49:44;;;;;;;6.50;5.90;;;;;;;9.64;68.47;98813.80;1682811;85;20991;-72
2022/05/24 02:52:11;;;;;;;6.58;4.45;;;;;;;9.69;68.39;98812.75;1691068;84;21097;-72
2022/05/24 02:54:38;;;;;;;6.37;4.65;;;;;;;9.76;68.36;98807.02;1681675;85;21434;-72
2022/05/24 02:57:05;;;;;;;7.00;4.67;;;;;;;9.82;68.18;98806.31;1690817;84;20982;-72
2022/05/24 02:59:33;;;;;;;7.40;4.83;;;;;;;9.93;67.91;98810.35;1682923;85;21805;-73
2022/05/24 03:02:03;;;;;;;4.78;4.28;;;;;;;10.00;67.64;98811.77;1676411;85;20908;-73
2022/05/24 03:04:30;;;;;;;4.85;4.30;;;;;;;10.10;67.28;98812.31;1666175;85;21466;-74
2022/05/24 03:09:41;;;;;;;6.62;4.80;;;;;;;10.36;67.04;98816.69;1683015;85;21430;-73
2022/05/24 03:14:54;;;;;;;5.62;4.70;;;;;;;10.76;66.25;98814.85;1679908;85;21030;-72
2022/05/24 03:17:20;;;;;;;5.22;4.40;;;;;;;11.02;65.74;98820.97;1679894;85;21006;-72
2022/05/24 03:19:48;;;;;;;8.05;4.78;;;;;;;11.26;65.04;98819.77;1679797;85;21124;-73
2022/05/24 03:22:15;;;;;;;6.08;4.62;;;;;;;11.50;64.24;98817.53;1679797;85;21015;-74
2022/05/24 03:24:41;;;;;;;4.90;4.35;;;;;;;11.77;63.41;98814.61;1679951;85;21247;-73
2022/05/24 03:27:11;;;;;;;6.10;4.10;;;;;;;12.02;62.64;98812.34;1683066;85;20956;-72
2022/05/24 03:29:38;;;;;;;4.65;3.75;;;;;;;12.27;61.80;98812.16;1690702;84;20943;-73
2022/05/24 03:32:07;;;;;;;4.33;4.03;;;;;;;12.52;60.96;98815.98;1683089;85;21016;-72
2022/05/24 03:34:34;;;;;;;10.70;4.40;;;;;;;12.74;60.29;98816.19;1682807;85;20955;-72
2022/05/24 03:37:01;;;;;;;8.40;4.17;;;;;;;13.00;59.69;98809.59;1678463;85;21497;-73
2022/05/24 03:39:27;;;;;;;5.10;4.50;;;;;;;13.29;58.94;98814.30;1680061;85;21501;-71
2022/05/24 03:41:54;;;;;;;4.75;3.95;;;;;;;13.55;58.11;98807.64;1679911;85;21063;-72
2022/05/24 03:44:21;;;;;;;4.25;3.85;;;;;;;13.84;57.44;98811.75;1677616;85;21638;-74
2022/05/24 03:46:48;;;;;;;6.20;4.25;;;;;;;14.16;56.68;98816.21;1682041;85;20931;-72
2022/05/24 03:49:15;;;;;;;6.12;4.00;;;;;;;14.50;56.09;98811.94;1683077;85;21797;-71
2022/05/24 03:51:41;;;;;;;7.47;4.85;;;;;;;14.88;55.47;98807.16;1683032;85;20852;-72
2022/05/24 03:54:08;;;;;;;43.92;33.42;;;;;;;15.27;54.71;98812.28;1683251;85;20920;-73
2022/05/24 03:56:35;;;;;;;31.00;26.80;;;;;;;15.62;53.87;98809.47;1690795;84;21591;-71
2022/05/24 03:59:02;;;;;;;18.75;16.10;;;;;;;15.97;52.99;98803.92;1681863;85;20979;-71
2022/05/24 04:01:28;;;;;;;12.60;9.80;;;;;;;16.34;52.35;98802.09;1678764;85;21170;-71
2022/05/24 04:03:56;;;;;;;9.10;6.53;;;;;;;16.76;51.61;98799.05;1680189;85;20963;-72
2022/05/24 04:06:23;;;;;;;7.00;6.30;;;;;;;17.17;50.93;98792.91;1679941;85;21611;-72
2022/05/24 04:08:51;;;;;;;6.17;5.60;;;;;;;17.61;49.82;98794.32;1679831;85;21023;-73
2022/05/24 04:11:17;;;;;;;6.10;5.10;;;;;;;18.09;48.51;98792.27;1680057;85;21004;-72
2022/05/24 04:13:44;;;;;;;7.58;6.33;;;;;;;18.82;46.95;98795.17;1680018;85;21857;-71
2022/05/24 04:16:11;;;;;;;5.72;4.83;;;;;;;19.28;46.03;98795.52;1678382;85;21110;-72
2022/05/24 04:18:38;;;;;;;8.35;5.05;;;;;;;19.67;45.15;98795.97;1679944;85;21597;-71
2022/05/24 04:21:04;;;;;;;7.87;5.17;;;;;;;20.02;44.48;98797.59;1679958;85;20967;-73
2022/05/24 04:23:30;;;;;;;9.35;4.67;;;;;;;20.39;43.94;98793.28;1679953;85;21006;-74
2022/05/24 04:25:57;;;;;;;8.93;5.20;;;;;;;20.79;43.44;98796.51;1681816;85;21054;-71
2022/05/24 04:28:24;;;;;;;6.35;5.85;;;;;;;21.21;42.58;98791.86;1683038;85;21620;-74
2022/05/24 04:30:51;;;;;;;8.30;7.50;;;;;;;21.66;41.09;98792.30;1686526;84;21003;-70
2022/05/24 04:33:18;;;;;;;6.05;5.53;;;;;;;22.04;40.27;98797.48;1687641;84;20896;-72
2022/05/24 04:35:46;;;;;;;6.08;5.30;;;;;;;22.43;39.58;98795.81;1690011;84;20998;-70
2022/05/24 04:38:13;;;;;;;10.88;6.40;;;;;;;22.86;38.84;98796.87;1690723;84;21172;-70
2022/05/24 04:43:26;;;;;;;7.87;6.22;;;;;;;23.70;37.35;98795.95;1690911;84;20995;-71
2022/05/24 04:45:55;;;;;;;6.92;6.33;;;;;;;24.11;35.97;98800.05;1696530;84;20985;-71
2022/05/24 04:48:23;;;;;;;7.12;6.53;;;;;;;24.45;35.33;98797.81;1695302;84;20965;-72
2022/05/24 04:50:54;;;;;;;10.10;5.60;;;;;;;24.76;34.60;98801.78;1695444;84;21138;-74
2022/05/24 04:53:21;;;;;;;7.97;6.33;;;;;;;24.92;34.05;98800.66;1695185;84;20970;-73
2022/05/24 04:55:49;;;;;;;6.83;6.22;;;;;;;25.04;33.46;98801.95;1697141;84;21426;-72
2022/05/24 04:58:17;;;;;;;11.22;6.37;;;;;;;25.21;33.09;98803.50;1690590;84;21505;-72
2022/05/24 05:00:44;;;;;;;12.68;8.08;;;;;;;25.45;32.89;98801.69;1704890;83;21033;-72
2022/05/24 05:03:13;;;;;;;9.28;6.05;;;;;;;25.83;32.40;98805.53;1700279;83;21771;-71
2022/05/24 05:05:41;;;;;;;8.80;5.72;;;;;;;26.17;31.89;98800.36;1690392;84;20899;-73
2022/05/24 05:08:09;;;;;;;8.65;5.25;;;;;;;26.57;31.54;98803.19;1690707;84;20931;-71
2022/05/24 05:10:37;;;;;;;8.75;5.22;;;;;;;27.00;30.39;98804.61;1689795;84;21031;-70
2022/05/24 05:13:05;;;;;;;9.48;5.22;;;;;;;27.30;29.78;98806.36;1688120;84;20935;-72
2022/05/24 05:15:34;;;;;;;10.82;5.08;;;;;;;27.62;29.66;98804.28;1695691;84;21157;-72
2022/05/24 05:18:11;;;;;;;4.87;4.10;;;;;;;27.98;28.67;98803.95;1695358;84;20886;-70
2022/05/24 05:20:40;;;;;;;6.83;3.87;;;;;;;28.35;28.27;98803.61;1689643;84;20903;-71
2022/05/24 05:23:09;;;;;;;7.35;3.50;;;;;;;28.71;27.29;98811.41;1690530;84;20955;-73
2022/05/24 05:25:38;;;;;;;2.60;2.40;;;;;;;28.97;25.85;98802.93;1689698;84;20877;-72
2022/05/24 05:28:04;;;;;;;8.00;3.08;;;;;;;29.22;24.30;98805.17;1688597;84;21146;-71
2022/05/24 05:33:05;;;;;;;3.00;2.58;;;;;;;29.65;23.33;98801.97;1623448;84;21026;-71
2022/05/24 05:35:31;;;;;;;4.12;3.35;;;;;;;29.90;23.28;98804.92;1689358;84;20958;-69
2022/05/24 05:37:58;;;;;;;4.08;3.52;;;;;;;30.23;23.30;98802.72;1686855;84;20939;-72
2022/05/24 05:40:25;;;;;;;5.60;3.75;;;;;;;30.63;23.00;98805.52;1679716;84;21005;-70
2022/05/24 05:42:52;;;;;;;5.83;2.90;;;;;;;30.95;22.64;98805.16;1685369;84;21058;-71
2022/05/24 05:45:19;;;;;;;3.20;2.80;;;;;;;31.27;22.35;98810.23;1689878;84;20915;-71
2022/05/24 05:47:46;;;;;;;4.97;2.45;;;;;;;31.64;20.90;98807.45;1702942;83;21011;-72
2022/05/24 05:50:13;;;;;;;2.42;2.22;;;;;;;31.86;20.11;98807.86;1690641;84;20939;-70
2022/05/24 05:52:40;;;;;;;4.60;2.77;;;;;;;32.04;19.87;98813.04;1686617;84;21247;-69
2022/05/24 05:55:09;;;;;;;4.83;2.90;;;;;;;32.24;19.83;98812.34;1688680;84;21532;-68
2022/05/24 05:57:36;;;;;;;2.80;2.40;;;;;;;32.54;19.53;98822.08;1678271;84;21524;-68
2022/05/24 06:00:04;;;;;;;2.55;2.35;;;;;;;32.86;18.73;98813.16;1685343;84;21420;-70
2022/05/24 06:02:31;;;;;;;2.42;2.20;;;;;;;32.98;18.25;98816.81;1689908;84;21014;-69
2022/05/24 06:04:57;;;;;;;3.33;2.12;;;;;;;33.17;18.20;98816.98;1690410;84;23679;-72
2022/05/24 06:07:26;;;;;;;3.40;1.85;;;;;;;33.40;17.78;98805.88;1685655;84;20974;-74
2022/05/24 06:09:53;;;;;;;2.00;1.85;;;;;;;33.51;16.98;98812.61;1674809;84;21014;-73
2022/05/24 06:12:19;;;;;;;2.70;1.90;;;;;;;33.58;16.75;98812.92;1687406;84;21093;-73
2022/05/24 06:14:47;;;;;;;1.72;1.60;;;;;;;33.68;16.20;98819.41;1687271;84;20946;-74
2022/05/24 06:17:16;;;;;;;3.40;1.70;;;;;;;33.76;15.61;98821.84;1702715;83;21143;-72
2022/05/24 06:19:44;;;;;;;2.58;1.85;;;;;;;33.81;15.71;98823.83;1681674;84;20970;-72
2022/05/24 06:22:10;;;;;;;1.85;1.75;;;;;;;33.92;14.90;98823.62;1680500;84;20907;-72
2022/05/24 06:24:41;;;;;;;2.58;2.15;;;;;;;33.99;14.55;98822.52;1688843;84;21010;-72
2022/05/24 06:27:05;;;;;;;3.95;2.02;;;;;;;33.97;14.55;98824.02;1688399;84;20951;-75
2022/05/24 06:29:32;;;;;;;3.05;1.55;;;;;;;34.07;14.04;98825.80;1680578;84;21129;-71
2022/05/24 06:32:01;;;;;;;2.22;1.40;;;;;;;34.22;13.75;98828.48;1677730;84;20980;-75
2022/05/24 06:34:29;;;;;;;1.52;1.30;;;;;;;34.32;13.50;98827.23;1680393;85;20972;-72
2022/05/24 06:36:57;;;;;;;1.75;1.45;;;;;;;34.33;13.24;98825.53;1679055;85;21014;-74
2022/05/24 06:39:24;;;;;;;3.20;1.80;;;;;;;34.44;13.49;98825.90;1679903;85;21007;-70
2022/05/24 06:41:50;;;;;;;3.98;1.75;;;;;;;34.66;13.63;98829.06;1681830;85;21591;-68
2022/05/24 06:44:17;;;;;;;2.55;1.07;;;;;;;34.96;13.90;98827.46;1680278;85;20943;-73
2022/05/24 06:46:44;;;;;;;1.60;1.50;;;;;;;35.22;12.45;98827.33;1679574;85;20963;-73
2022/05/24 06:49:11;;;;;;;4.45;2.05;;;;;;;35.20;12.36;98822.73;1680023;85;20907;-80
2022/05/24 06:51:38;;;;;;;1.98;1.75;;;;;;;35.19;12.24;98826.67;1680664;85;20938;-75
2022/05/24 06:54:05;;;;;;;1.95;1.62;;;;;;;35.16;12.61;98821.83;1681739;85;21800;-75
2022/05/24 06:56:33;;;;;;;1.72;1.60;;;;;;;35.22;12.78;98821.02;1690782;84;20930;-75
2022/05/24 07:04:30;;;;;;;3.30;1.52;;;;;;;36.13;12.53;98826.31;1679357;85;21023;-71
2022/05/24 07:06:57;;;;;;;2.08;1.32;;;;;;;36.24;12.41;98828.19;1691801;83;21298;-75
2022/05/24 07:09:28;;;;;;;2.58;1.57;;;;;;;36.13;12.16;98831.84;1682997;85;21524;-72
2022/05/24 07:11:52;;;;;;;2.45;1.42;;;;;;;35.94;11.88;98835.23;1689876;84;21114;-73
2022/05/24 07:14:19;;;;;;;2.22;1.55;;;;;;;35.65;12.01;98835.57;1683112;85;20967;-73
2022/05/24 07:16:45;;;;;;;3.17;1.75;;;;;;;35.54;12.26;98838.62;1690869;84;21627;-72
2022/05/24 07:19:12;;;;;;;5.35;1.98;;;;;;;35.64;12.43;98833.98;1683290;85;21174;-71
2022/05/24 07:21:39;;;;;;;4.65;1.62;;;;;;;35.89;12.47;98828.00;1682912;85;21450;-70
2022/05/24 07:24:07;;;;;;;2.80;1.57;;;;;;;36.20;12.52;98827.30;1683106;85;21498;-72
2022/05/24 07:26:33;;;;;;;1.95;1.40;;;;;;;36.53;12.32;98829.77;1683207;85;21030;-72
2022/05/24 07:29:00;;;;;;;2.55;1.67;;;;;;;36.70;12.00;98823.89;1683137;85;20899;-72
2022/05/24 07:31:27;;;;;;;2.47;1.90;;;;;;;36.85;12.02;98822.27;1685715;84;21282;-72
2022/05/24 07:33:53;;;;;;;2.87;1.40;;;;;;;36.72;12.06;98824.91;1690557;84;20955;-72
2022/05/24 07:36:20;;;;;;;1.95;1.47;;;;;;;36.83;12.22;98827.37;1698520;84;21074;-72
2022/05/24 07:38:48;;;;;;;1.72;1.55;;;;;;;37.07;12.04;98825.23;1690689;84;20955;-72
2022/05/24 07:46:45;;;;;;;1.90;1.40;;;;;;;37.27;10.94;98838.55;1698680;84;20997;-72
2022/05/24 07:49:11;;;;;;;1.67;1.57;;;;;;;37.04;10.77;98836.23;1690828;84;20946;-73
2022/05/24 07:51:38;;;;;;;3.25;1.70;;;;;;;36.86;10.82;98835.78;1698509;84;21503;-72
2022/05/24 07:54:04;;;;;;;2.00;1.32;;;;;;;36.93;10.92;98842.06;1690770;84;20935;-70
2022/05/24 07:56:31;;;;;;;2.90;1.60;;;;;;;36.88;10.71;98834.84;1690791;84;21172;-72
2022/05/24 07:58:58;;;;;;;2.98;1.60;;;;;;;36.83;11.11;98837.88;1690676;84;20990;-71
2022/05/24 08:01:24;;;;;;;1.45;1.35;;;;;;;37.03;10.67;98832.65;1698680;84;21551;-74
2022/05/24 08:03:51;;;;;;;4.92;1.62;;;;;;;37.25;10.59;98828.41;1690673;84;21571;-71
2022/05/24 08:06:18;;;;;;;4.37;1.87;;;;;;;37.58;10.71;98837.68;1690822;84;21022;-72
2022/05/24 08:08:44;;;;;;;3.20;2.05;;;;;;;37.94;10.54;98829.53;1698467;83;21140;-73
2022/05/24 08:11:11;;;;;;;2.52;1.40;;;;;;;38.04;10.38;98830.35;1690789;84;21406;-73
2022/05/24 08:13:38;;;;;;;2.92;1.80;;;;;;;38.33;10.41;98823.39;1690642;84;20994;-71
2022/05/24 08:16:05;;;;;;;2.50;1.72;;;;;;;38.54;9.72;98832.89;1690615;84;21111;-74
2022/05/24 08:18:32;;;;;;;2.35;1.25;;;;;;;38.11;9.79;98829.91;1690791;84;21023;-71
2022/05/24 08:20:59;;;;;;;2.65;1.70;;;;;;;37.73;9.83;98831.87;1690713;84;21443;-72
2022/05/24 08:23:27;;;;;;;1.60;1.50;;;;;;;37.50;9.96;98831.75;1698483;84;20899;-72
2022/05/24 08:25:55;;;;;;;3.35;1.45;;;;;;;37.39;10.15;98827.94;1690746;84;21007;-73
2022/05/24 08:28:22;;;;;;;2.05;1.40;;;;;;;37.45;10.16;98828.69;1690668;84;20955;-73
2022/05/24 08:30:50;;;;;;;3.98;1.55;;;;;;;37.34;9.85;98829.00;1690868;84;20974;-71
2022/05/24 08:33:17;;;;;;;2.70;1.40;;;;;;;37.13;10.06;98830.70;1683241;84;21173;-71
2022/05/24 08:35:44;;;;;;;3.42;1.85;;;;;;;37.02;10.11;98821.33;1690824;84;20993;-73
2022/05/24 08:38:12;;;;;;;3.20;1.45;;;;;;;37.14;10.17;98830.13;1683089;85;20968;-74
2022/05/24 08:40:41;;;;;;;4.20;1.62;;;;;;;37.20;9.98;98825.92;1691005;84;20923;-71
2022/05/24 08:43:58;;;;;;;1.50;1.40;;;;;;;37.31;10.08;98826.95;1683036;85;20995;-72
2022/05/24 08:49:21;;;;;;;2.27;1.62;;;;;;;38.07;9.97;98812.94;1683376;85;21069;-72
2022/05/24 08:51:55;;;;;;;1.52;1.42;;;;;;;38.66;9.72;98818.83;1691041;84;20923;-71
2022/05/24 08:54:38;;;;;;;1.62;1.40;;;;;;;39.13;9.53;98816.22;1683162;85;21542;-72
2022/05/24 08:57:09;;;;;;;6.12;1.65;;;;;;;39.56;9.35;98811.48;1664954;86;21118;-72
2022/05/24 09:00:04;;;;;;;1.55;1.20;;;;;;;39.66;9.04;98810.06;1680794;85;21277;-71
2022/05/24 09:02:31;;;;;;;1.65;1.42;;;;;;;39.67;8.84;98812.45;1683715;85;20943;-72
2022/05/24 09:04:57;;;;;;;1.27;1.15;;;;;;;39.55;8.64;98809.09;1683269;85;20931;-71
2022/05/24 09:07:33;;;;;;;3.12;1.22;;;;;;;39.32;8.74;98806.38;1690989;84;21615;-72
2022/05/24 09:10:13;;;;;;;2.00;1.57;;;;;;;39.30;8.77;98809.55;1682041;85;21477;-71
2022/05/24 09:13:15;;;;;;;2.85;1.30;;;;;;;39.23;8.88;98799.72;1679945;85;21062;-71
2022/05/24 09:16:17;;;;;;;0.98;0.98;;;;;;;39.15;8.67;98810.49;1674270;85;20907;-75
2022/05/24 09:19:04;;;;;;;3.75;1.10;;;;;;;39.23;8.85;98807.25;1648490;85;21519;-71
2022/05/24 09:21:32;;;;;;;2.02;1.35;;;;;;;39.66;8.45;98809.45;1652016;85;21005;-74
2022/05/24 09:24:17;;;;;;;4.28;1.32;;;;;;;39.97;8.45;98802.68;1680028;85;20952;-71
2022/05/24 09:27:14;;;;;;;1.60;1.40;;;;;;;40.27;8.42;98801.22;1679960;85;21204;-71
2022/05/24 09:30:03;;;;;;;4.53;1.42;;;;;;;40.33;8.58;98797.72;1679847;85;20944;-73
2022/05/24 09:32:43;;;;;;;2.35;1.70;;;;;;;40.71;8.57;98800.66;1679385;84;20919;-71
2022/05/24 09:35:18;;;;;;;3.47;1.60;;;;;;;41.00;8.40;98794.14;1690604;84;20939;-71
2022/05/24 09:38:03;;;;;;;3.95;1.70;;;;;;;41.31;8.41;98799.73;1698530;84;21574;-72
2022/05/24 09:40:47;;;;;;;2.60;1.70;;;;;;;40.96;8.25;98797.48;1676472;84;39170;-72
2022/05/24 09:43:18;;;;;;;3.05;1.87;;;;;;;40.96;8.25;98797.48;1663079;84;21650;-72
2022/05/24 09:45:46;;;;;;;2.42;1.87;;;;;;;40.95;8.37;98795.09;1690837;84;21504;-71
2022/05/24 09:48:23;;;;;;;2.52;1.67;;;;;;;41.11;8.31;98795.02;1690608;84;20963;-71
2022/05/24 09:50:52;;;;;;;2.35;1.80;;;;;;;40.87;8.40;98794.22;1690293;83;20864;-71
2022/05/24 09:53:27;;;;;;;1.62;1.37;;;;;;;40.20;8.63;98790.82;1698544;84;21229;-71
2022/05/24 09:56:01;;;;;;;1.77;1.30;;;;;;;39.39;8.54;98803.13;1690679;84;21512;-72
2022/05/24 09:58:36;;;;;;;2.72;1.57;;;;;;;38.67;9.28;98795.98;1680752;84;21515;-71
2022/05/24 10:01:09;;;;;;;1.82;1.20;;;;;;;38.38;9.20;98796.09;1690638;84;21552;-72
2022/05/24 10:03:45;;;;;;;1.40;1.30;;;;;;;37.95;9.53;98797.84;1690585;84;20912;-72
2022/05/24 10:06:28;;;;;;;1.77;1.55;;;;;;;37.96;9.24;98788.35;1690616;84;21268;-72
2022/05/24 10:08:59;;;;;;;3.12;1.62;;;;;;;35.85;10.46;98788.94;1698339;84;20982;-72
2022/05/24 10:11:45;;;;;;;2.52;1.60;;;;;;;34.25;11.58;98784.21;1690706;84;21526;-72
2022/05/24 10:14:26;;;;;;;2.25;1.70;;;;;;;32.98;12.23;98790.65;1698481;83;20978;-73
2022/05/24 10:17:23;;;;;;;2.65;1.37;;;;;;;32.02;13.36;98786.97;1698333;84;21571;-75
2022/05/24 10:20:05;;;;;;;2.22;1.20;;;;;;;31.16;13.81;98789.69;1690618;84;22207;-72
2022/05/24 10:22:43;;;;;;;1.32;1.22;;;;;;;30.00;14.63;98790.73;1690618;84;20896;-73
2022/05/24 10:25:36;;;;;;;1.67;1.40;;;;;;;29.29;15.05;98795.96;1690679;84;20895;-73
2022/05/24 10:28:29;;;;;;;3.17;1.45;;;;;;;28.83;15.43;98797.23;1660874;84;21472;-71
2022/05/24 10:31:22;;;;;;;1.60;1.50;;;;;;;28.22;15.86;98795.64;1690066;84;20958;-73
2022/05/24 10:40:29;;;;;;;3.87;1.40;;;;;;;27.16;16.97;98787.75;1698792;84;20942;-72
2022/05/24 10:43:51;;;;;;;1.00;1.00;;;;;;;26.91;17.76;98785.34;1690621;84;20947;-71
2022/05/24 10:46:32;;;;;;;1.75;1.40;;;;;;;26.88;17.79;98781.28;1698474;84;21519;-73
2022/05/24 10:49:21;;;;;;;1.75;1.30;;;;;;;26.71;17.85;98782.30;1656264;85;21530;-71
2022/05/24 10:52:17;;;;;;;1.30;1.20;;;;;;;26.48;17.74;98783.13;1684090;85;20971;-72
2022/05/24 10:54:54;;;;;;;3.12;1.25;;;;;;;26.29;17.68;98781.69;1690716;84;20994;-71
2022/05/24 10:57:26;;;;;;;3.55;1.62;;;;;;;26.07;18.08;98779.95;1697951;84;21085;-72
2022/05/24 11:00:20;;;;;;;6.05;1.20;;;;;;;25.91;18.06;98785.31;1690712;85;20970;-72
2022/05/24 11:03:04;;;;;;;1.50;1.20;;;;;;;25.74;18.43;98784.89;1698457;84;22346;-71
2022/05/24 11:05:35;;;;;;;2.22;1.30;;;;;;;25.58;18.34;98781.48;1687797;85;20951;-71
2022/05/24 11:08:39;;;;;;;1.47;1.22;;;;;;;25.45;18.31;98778.00;1677692;85;21455;-71
2022/05/24 11:11:17;;;;;;;2.37;1.90;;;;;;;25.38;18.62;98781.61;1690587;84;20990;-71
2022/05/24 11:13:48;;;;;;;2.50;1.25;;;;;;;25.33;18.68;98783.00;1706437;83;20979;-70
2022/05/24 11:16:22;;;;;;;1.98;1.10;;;;;;;25.18;18.99;98789.09;1697961;84;21173;-71
2022/05/24 11:18:49;;;;;;;1.52;1.20;;;;;;;24.94;19.33;98784.86;1690230;85;20904;-71
2022/05/24 11:21:32;;;;;;;1.15;1.00;;;;;;;24.67;19.25;98785.22;1690637;85;21500;-70
2022/05/24 11:24:04;;;;;;;2.05;1.00;;;;;;;24.47;19.34;98781.22;1698438;84;20954;-71
2022/05/24 11:26:34;;;;;;;1.40;1.30;;;;;;;24.39;19.50;98782.60;1681446;85;20943;-71
2022/05/24 11:29:30;;;;;;;1.10;1.05;;;;;;;24.32;19.75;98786.16;1690751;85;21084;-72
2022/05/24 11:32:06;;;;;;;1.35;1.20;;;;;;;24.19;20.09;98784.55;1691021;83;21556;-71
2022/05/24 11:34:37;;;;;;;2.62;1.47;;;;;;;24.03;20.22;98782.91;1703635;84;20906;-71
2022/05/24 11:37:28;;;;;;;4.28;1.65;;;;;;;23.89;20.63;98778.04;1702877;84;21041;-70
2022/05/24 11:39:54;;;;;;;2.77;2.25;;;;;;;23.81;20.66;98779.13;1687693;84;21053;-71
2022/05/24 11:42:46;;;;;;;1.57;1.47;;;;;;;23.79;20.53;98778.59;1703693;84;21135;-71
2022/05/24 11:45:39;;;;;;;1.22;1.20;;;;;;;23.81;20.45;98784.02;1701283;84;20938;-71
2022/05/24 11:48:15;;;;;;;1.32;1.22;;;;;;;23.82;20.45;98778.87;1701296;84;21079;-74
2022/05/24 11:50:47;;;;;;;1.50;1.35;;;;;;;23.86;20.29;98770.97;1694623;84;20946;-72
2022/05/24 11:53:41;;;;;;;5.53;1.55;;;;;;;23.82;20.43;98765.83;1704533;82;20956;-70
2022/05/24 11:56:12;;;;;;;2.47;1.50;;;;;;;23.79;20.88;98769.08;1703731;84;21248;-73
2022/05/24 11:58:43;;;;;;;2.15;1.30;;;;;;;23.83;21.24;98763.36;1703665;84;20996;-72
2022/05/24 12:01:21;;;;;;;2.58;1.80;;;;;;;23.83;21.03;98758.75;1704414;82;20950;-72
2022/05/24 12:10:25;;;;;;;2.90;1.25;;;;;;;24.06;21.08;98756.56;1704061;84;21175;-71
2022/05/24 12:13:04;;;;;;;3.35;1.32;;;;;;;24.09;20.82;98762.27;1694825;84;20994;-73
2022/05/24 12:15:43;;;;;;;1.57;1.47;;;;;;;24.12;20.92;98756.83;1702168;83;21370;-71
2022/05/24 12:18:15;;;;;;;1.62;1.40;;;;;;;24.06;20.85;98751.95;1703618;84;21017;-71
2022/05/24 12:20:48;;;;;;;1.80;1.02;;;;;;;23.93;21.17;98759.30;1699819;82;21556;-72
2022/05/24 12:23:38;;;;;;;3.17;1.27;;;;;;;23.80;21.16;98757.14;1700523;84;21941;-72
2022/05/24 12:26:12;;;;;;;1.77;1.35;;;;;;;23.67;21.41;98756.34;1674001;85;21026;-73
2022/05/24 12:28:53;;;;;;;1.75;1.40;;;;;;;23.56;21.53;98758.23;1703826;83;21500;-71
2022/05/24 12:31:30;;;;;;;1.98;1.55;;;;;;;23.50;21.70;98758.48;1703745;84;20927;-72
2022/05/24 12:34:06;;;;;;;3.25;1.20;;;;;;;23.45;21.98;98754.42;1695349;82;20950;-73
2022/05/24 12:36:43;;;;;;;2.65;1.42;;;;;;;23.46;21.88;98752.81;1690731;84;21916;-72
2022/05/24 12:39:21;;;;;;;1.27;1.17;;;;;;;23.43;21.49;98749.81;1683177;85;20864;-71
2022/05/24 12:41:53;;;;;;;2.62;1.15;;;;;;;23.35;21.65;98750.59;1682999;84;20990;-71
2022/05/24 12:44:47;;;;;;;1.32;1.22;;;;;;;23.34;21.67;98751.67;1691565;83;20982;-74